Time;durP1;ratioP1;P1;durP2;ratioP2;P2;SDS_P1;SDS_P2;PMS_P1;PMS_P2;Temp;Humidity;BMP_temperature;BMP_pressure;BME280_temperature;BME280_humidity;BME280_pressure;Samples;Min_cycle;Max_cycle;Signal;HPM_P1;HPM_P2
2021/12/07 00:00:48;;;;;;;14.03;8.80;;;;;;;11.79;94.70;95912.56;5067520;28;20213;-65
2021/12/07 00:03:15;;;;;;;15.67;8.27;;;;;;;11.74;95.37;95911.22;5068803;28;20201;-65
2021/12/07 00:05:42;;;;;;;14.33;8.50;;;;;;;11.65;95.71;95891.91;5067463;28;20653;-65
2021/12/07 00:08:09;;;;;;;11.20;8.63;;;;;;;11.78;95.20;95895.34;5068646;28;20201;-65
2021/12/07 00:10:38;;;;;;;17.37;8.03;;;;;;;11.68;95.48;95896.94;5068132;28;20190;-64
2021/12/07 00:13:06;;;;;;;11.80;7.80;;;;;;;11.68;95.02;95885.72;5068015;28;20285;-65
2021/12/07 00:15:34;;;;;;;13.20;8.90;;;;;;;11.77;94.99;95890.25;5068467;28;20229;-65
2021/12/07 00:18:01;;;;;;;13.13;8.47;;;;;;;11.76;95.01;95888.59;5067178;28;20199;-65
2021/12/07 00:20:28;;;;;;;9.80;7.97;;;;;;;11.80;94.04;95888.28;5068499;28;20211;-66
2021/12/07 00:23:04;;;;;;;14.53;8.60;;;;;;;11.80;94.61;95884.88;5066518;28;20193;-65
2021/12/07 00:25:31;;;;;;;13.97;7.77;;;;;;;11.77;93.63;95887.66;5068401;28;20198;-65
2021/12/07 00:27:58;;;;;;;15.10;8.00;;;;;;;11.84;93.96;95886.31;5068095;28;20187;-65
2021/12/07 00:30:30;;;;;;;11.13;8.37;;;;;;;11.79;94.01;95868.47;5067454;28;20194;-65
2021/12/07 00:35:35;;;;;;;11.50;8.23;;;;;;;11.75;94.63;95863.59;5065699;28;20619;-65
2021/12/07 00:38:15;;;;;;;16.83;8.57;;;;;;;11.71;94.50;95868.16;5068338;28;20195;-65
2021/12/07 00:40:43;;;;;;;13.07;7.93;;;;;;;11.70;94.99;95868.28;5066571;28;20224;-65
2021/12/07 00:43:12;;;;;;;14.37;8.50;;;;;;;11.70;95.16;95869.13;5067134;28;20235;-65
2021/12/07 00:45:42;;;;;;;12.40;8.70;;;;;;;11.71;95.21;95852.59;5068279;28;20292;-65
2021/12/07 00:48:09;;;;;;;14.20;8.60;;;;;;;11.74;95.17;95859.34;5066770;28;20203;-64
2021/12/07 00:50:38;;;;;;;14.47;8.43;;;;;;;11.76;95.01;95858.31;5068219;28;20202;-65
2021/12/07 00:53:06;;;;;;;12.73;7.20;;;;;;;11.69;94.60;95856.25;5066766;28;20270;-64
2021/12/07 00:55:40;;;;;;;13.47;8.30;;;;;;;11.73;94.65;95853.34;5067723;28;20231;-65
2021/12/07 00:58:17;;;;;;;15.43;8.63;;;;;;;11.72;95.14;95841.31;5059993;28;20206;-65
2021/12/07 01:00:47;;;;;;;14.33;8.83;;;;;;;11.71;94.74;95838.81;5045436;28;20205;-66
2021/12/07 01:03:15;;;;;;;16.50;9.07;;;;;;;11.74;94.98;95848.97;5048498;28;20610;-64
2021/12/07 01:05:49;;;;;;;15.50;9.40;;;;;;;11.81;94.85;95845.84;5052423;28;20203;-64
2021/12/07 01:08:50;;;;;;;18.17;8.53;;;;;;;11.76;94.47;95847.09;5062343;28;20289;-64
2021/12/07 01:24:57;;;;;;;18.27;8.00;;;;;;;11.74;95.56;95823.03;5067421;28;20630;-64
2021/12/07 01:27:26;;;;;;;12.23;7.77;;;;;;;11.72;95.69;95814.53;5053047;28;20245;-64
2021/12/07 01:30:07;;;;;;;13.27;8.10;;;;;;;11.73;95.17;95785.06;5065273;28;20270;-64
2021/12/07 01:46:01;;;;;;;16.20;8.97;;;;;;;11.66;95.34;95789.00;5067137;28;20245;-64
2021/12/07 01:59:42;;;;;;;15.50;9.43;;;;;;;11.67;95.02;95768.19;5065989;28;20262;-64
2021/12/07 02:02:12;;;;;;;12.07;8.53;;;;;;;11.68;95.54;95766.41;5065894;28;20231;-65
2021/12/07 02:04:39;;;;;;;16.73;9.50;;;;;;;11.77;95.25;95765.75;5065620;28;20236;-64
2021/12/07 02:07:09;;;;;;;19.23;9.83;;;;;;;11.73;94.47;95765.16;5065720;28;20183;-64
2021/12/07 02:09:43;;;;;;;22.70;9.07;;;;;;;11.73;95.23;95759.13;5064546;28;20231;-64
2021/12/07 02:12:13;;;;;;;19.33;8.97;;;;;;;11.73;95.00;95759.13;5065836;28;20224;-64
2021/12/07 02:14:42;;;;;;;14.93;10.37;;;;;;;11.75;94.60;95757.25;5064151;28;20233;-64
2021/12/07 02:17:17;;;;;;;18.80;9.43;;;;;;;11.65;95.28;95764.84;5082590;28;20268;-64
2021/12/07 02:19:48;;;;;;;17.60;9.53;;;;;;;11.70;95.26;95762.78;5065397;28;20717;-64
2021/12/07 02:22:17;;;;;;;26.67;12.87;;;;;;;11.74;95.32;95766.00;5066345;28;20676;-64
2021/12/07 02:24:48;;;;;;;13.90;9.33;;;;;;;11.74;94.39;95771.19;5065940;28;20195;-65
2021/12/07 02:27:15;;;;;;;13.03;8.43;;;;;;;11.76;94.13;95770.13;5064195;28;20730;-64
2021/12/07 02:29:43;;;;;;;18.33;9.30;;;;;;;11.74;94.74;95773.78;5067022;28;20720;-64
2021/12/07 02:32:10;;;;;;;19.10;8.47;;;;;;;11.67;95.09;95773.38;5064219;28;20221;-64
2021/12/07 02:34:43;;;;;;;17.13;9.93;;;;;;;11.75;95.03;95772.81;5065515;28;20682;-64
2021/12/07 02:37:11;;;;;;;20.47;9.70;;;;;;;11.68;94.96;95772.44;5065263;28;20194;-64
2021/12/07 02:39:40;;;;;;;19.10;9.90;;;;;;;11.69;95.13;95775.84;5065996;28;20264;-65
2021/12/07 02:42:09;;;;;;;12.70;9.13;;;;;;;11.64;95.73;95752.81;5065505;28;20807;-64
2021/12/07 02:44:36;;;;;;;19.57;8.33;;;;;;;11.64;95.05;95765.78;5081675;28;20593;-64
2021/12/07 02:47:09;;;;;;;20.03;7.20;;;;;;;11.62;95.25;95746.91;5069416;28;20205;-64
2021/12/07 02:49:36;;;;;;;15.60;7.33;;;;;;;11.63;94.64;95758.94;5084864;28;20228;-65
2021/12/07 02:52:05;;;;;;;12.70;6.37;;;;;;;11.64;94.56;95755.41;5068793;28;20190;-65
2021/12/07 02:54:43;;;;;;;11.03;7.20;;;;;;;11.64;95.26;95755.41;5070091;28;20711;-64
2021/12/07 02:57:14;;;;;;;17.03;7.17;;;;;;;11.58;94.79;95737.66;5067679;28;20267;-65
2021/12/07 02:59:44;;;;;;;15.33;6.80;;;;;;;11.68;94.83;95746.50;5069037;28;20193;-65
2021/12/07 03:02:14;;;;;;;12.57;7.90;;;;;;;11.69;94.83;95748.16;5067439;28;20204;-64
2021/12/07 03:04:52;;;;;;;13.70;7.80;;;;;;;11.64;94.78;95739.84;5068909;28;20212;-65
2021/12/07 03:28:48;;;;;;;8.10;5.17;;;;;;;11.48;96.69;95723.69;5047575;28;20262;-64
2021/12/07 03:31:22;;;;;;;12.37;5.50;;;;;;;11.33;96.83;95715.22;5064048;28;20315;-64
2021/12/07 03:33:49;;;;;;;6.33;5.17;;;;;;;11.32;97.20;95723.97;5048383;28;20212;-65
2021/12/07 03:36:17;;;;;;;15.10;7.63;;;;;;;11.38;97.19;95715.75;5046856;28;20224;-64
2021/12/07 03:38:45;;;;;;;13.23;6.17;;;;;;;11.33;96.39;95720.41;5050803;28;20635;-64
2021/12/07 03:41:13;;;;;;;12.83;7.20;;;;;;;11.34;95.88;95703.94;5068184;28;20235;-64
2021/12/07 03:43:40;;;;;;;13.83;7.87;;;;;;;11.34;96.44;95703.94;5069084;28;20683;-64
2021/12/07 03:46:08;;;;;;;14.47;7.03;;;;;;;11.31;96.63;95704.13;5063018;28;20258;-65
2021/12/07 03:48:36;;;;;;;12.57;8.43;;;;;;;11.28;97.26;95706.97;5054293;28;20724;-64
2021/12/07 03:51:04;;;;;;;15.30;8.17;;;;;;;11.25;97.65;95691.63;5061766;28;20197;-64
2021/12/07 03:53:33;;;;;;;12.83;8.70;;;;;;;11.25;96.28;95714.13;5063197;28;20737;-64
2021/12/07 03:56:02;;;;;;;16.57;8.40;;;;;;;11.30;95.61;95705.09;5046965;28;20665;-64
2021/12/07 03:58:36;;;;;;;20.03;9.17;;;;;;;11.28;95.80;95712.16;5046722;28;20186;-63
2021/12/07 04:01:10;;;;;;;14.63;9.47;;;;;;;11.31;95.84;95709.31;5063968;28;20213;-64
2021/12/07 04:03:40;;;;;;;22.07;9.80;;;;;;;11.34;95.75;95719.50;5047593;28;20834;-63
2021/12/07 04:06:09;;;;;;;21.67;9.40;;;;;;;11.31;96.26;95724.06;5046393;28;20571;-64
2021/12/07 04:08:41;;;;;;;16.23;9.57;;;;;;;11.28;95.86;95717.31;5047762;28;20198;-63
2021/12/07 04:11:13;;;;;;;18.93;9.87;;;;;;;11.39;95.49;95730.38;5046186;28;20224;-63
2021/12/07 04:13:43;;;;;;;20.17;10.33;;;;;;;11.31;96.20;95727.47;5047384;28;20289;-64
2021/12/07 04:16:13;;;;;;;14.57;9.33;;;;;;;11.31;95.53;95724.88;5047091;28;20304;-63
2021/12/07 04:18:43;;;;;;;16.57;11.47;;;;;;;11.38;96.30;95728.72;5046140;28;20201;-63
2021/12/07 04:21:10;;;;;;;19.87;10.67;;;;;;;11.33;95.85;95725.59;5047258;28;20198;-63
2021/12/07 04:23:37;;;;;;;23.90;11.60;;;;;;;11.41;95.71;95728.50;5047034;28;20198;-64
2021/12/07 04:26:08;;;;;;;20.03;10.30;;;;;;;11.41;95.68;95728.50;5048625;28;20200;-64
2021/12/07 04:28:36;;;;;;;15.90;9.53;;;;;;;11.45;95.76;95734.28;5045923;28;20202;-64
2021/12/07 04:31:04;;;;;;;16.77;10.53;;;;;;;11.40;96.19;95728.59;5047924;28;20205;-64
2021/12/07 04:33:31;;;;;;;23.20;11.87;;;;;;;11.34;96.03;95722.09;5048255;28;20215;-64
2021/12/07 04:36:00;;;;;;;20.97;11.80;;;;;;;11.28;96.59;95721.69;5047034;28;20747;-64
2021/12/07 04:38:28;;;;;;;22.77;11.07;;;;;;;11.29;96.64;95724.16;5048225;28;20204;-64
2021/12/07 04:40:55;;;;;;;18.97;12.53;;;;;;;11.23;97.25;95710.81;5046814;28;20718;-64
2021/12/07 04:43:22;;;;;;;16.70;10.50;;;;;;;11.21;97.76;95710.09;5048052;28;20230;-64
2021/12/07 04:45:59;;;;;;;16.07;9.57;;;;;;;11.21;97.67;95710.91;5047023;28;20207;-64
2021/12/07 04:59:46;;;;;;;18.97;11.00;;;;;;;11.06;99.62;95709.41;5005920;28;20206;-63
2021/12/07 05:02:15;;;;;;;19.90;11.57;;;;;;;11.12;98.85;95714.16;5038176;28;20227;-64
2021/12/07 05:04:42;;;;;;;25.90;11.70;;;;;;;11.12;99.33;95713.31;5047817;28;20245;-64
2021/12/07 05:07:17;;;;;;;18.77;12.37;;;;;;;11.09;99.38;95706.56;5046204;28;20699;-64
2021/12/07 05:14:42;;;;;;;22.00;13.27;;;;;;;11.05;99.90;95702.53;5046316;28;20224;-63
2021/12/07 05:17:24;;;;;;;20.03;11.63;;;;;;;11.08;99.58;95694.56;5046149;28;20221;-62
2021/12/07 05:38:54;;;;;;;16.47;12.50;;;;;;;11.06;98.73;95680.91;5067292;28;20197;-63
2021/12/07 05:41:24;;;;;;;19.53;12.67;;;;;;;11.07;98.81;95687.72;5065970;28;20294;-64
2021/12/07 05:43:56;;;;;;;20.50;12.70;;;;;;;11.14;98.16;95693.31;5067075;28;20741;-63
2021/12/07 05:46:23;;;;;;;21.77;14.20;;;;;;;10.88;98.71;95653.66;5066679;28;20697;-63
2021/12/07 05:48:50;;;;;;;16.23;12.23;;;;;;;11.07;98.58;95687.72;5066413;28;20232;-63
2021/12/07 05:51:17;;;;;;;15.63;13.67;;;;;;;11.13;98.32;95689.03;5067157;28;20205;-63
2021/12/07 05:53:45;;;;;;;20.73;13.60;;;;;;;11.06;98.62;95685.25;5065679;28;20689;-63
2021/12/07 05:56:12;;;;;;;19.40;11.50;;;;;;;11.06;99.02;95700.78;5065422;28;20665;-63
2021/12/07 05:58:39;;;;;;;15.27;12.00;;;;;;;11.00;99.13;95701.22;5065403;28;20284;-63
2021/12/07 06:01:06;;;;;;;18.50;12.50;;;;;;;11.03;99.52;95696.63;5067203;28;20204;-63
2021/12/07 06:03:34;;;;;;;16.37;12.70;;;;;;;10.99;99.56;95695.19;5065968;28;20201;-63
2021/12/07 06:06:04;;;;;;;16.83;10.90;;;;;;;11.03;99.24;95701.81;5066114;28;20189;-63
2021/12/07 06:08:31;;;;;;;19.63;12.33;;;;;;;11.01;99.33;95689.91;5065408;28;20201;-63
2021/12/07 06:10:59;;;;;;;16.00;11.73;;;;;;;10.99;99.38;95708.16;5063998;28;20204;-63
2021/12/07 06:13:26;;;;;;;17.30;12.37;;;;;;;11.02;99.54;95715.72;5067018;28;20329;-63
2021/12/07 06:15:53;;;;;;;23.90;12.57;;;;;;;11.05;99.35;95699.13;5080742;28;20217;-62
2021/12/07 06:18:20;;;;;;;24.47;13.53;;;;;;;11.08;99.31;95720.47;5066947;28;20196;-63
2021/12/07 06:20:47;;;;;;;27.63;16.30;;;;;;;11.02;100.00;95694.16;5068581;28;20205;-62
2021/12/07 06:23:17;;;;;;;32.27;18.03;;;;;;;11.23;99.13;95731.56;5069904;28;20185;-63
2021/12/07 06:25:45;;;;;;;24.20;17.13;;;;;;;11.21;99.85;95718.69;5070708;28;20279;-63
2021/12/07 06:28:13;;;;;;;20.93;14.57;;;;;;;11.15;99.93;95700.97;5067725;28;20274;-63
2021/12/07 06:30:46;;;;;;;17.20;10.53;;;;;;;11.16;97.99;95704.41;5070227;28;20646;-63
2021/12/07 06:33:16;;;;;;;30.20;17.17;;;;;;;11.14;98.90;95693.31;5068863;28;20267;-63
2021/12/07 06:35:44;;;;;;;27.17;17.60;;;;;;;11.15;99.00;95702.72;5070089;28;20236;-63
2021/12/07 06:38:11;;;;;;;25.80;16.13;;;;;;;11.14;99.10;95714.88;5069862;28;20236;-62
2021/12/07 06:40:39;;;;;;;29.43;15.00;;;;;;;10.94;100.00;95704.22;5069075;28;20693;-62
2021/12/07 06:43:06;;;;;;;19.37;13.73;;;;;;;10.88;100.00;95708.03;5070113;28;20234;-64
2021/12/07 06:45:33;;;;;;;15.47;10.07;;;;;;;10.68;100.00;95693.03;5068561;28;20287;-64
2021/12/07 06:48:00;;;;;;;17.17;9.30;;;;;;;10.77;100.00;95705.38;5085717;28;20224;-62
2021/12/07 06:50:27;;;;;;;16.77;10.20;;;;;;;10.77;100.00;95702.78;5068466;28;20204;-62
2021/12/07 06:52:57;;;;;;;11.97;8.63;;;;;;;10.84;99.14;95710.97;5069656;28;20579;-64
2021/12/07 06:55:24;;;;;;;12.03;8.63;;;;;;;10.90;99.16;95716.53;5069130;28;20201;-62
2021/12/07 06:57:51;;;;;;;12.93;8.60;;;;;;;10.89;99.22;95714.88;5068790;28;20653;-62
2021/12/07 07:00:19;;;;;;;12.13;8.77;;;;;;;10.86;98.98;95694.38;5069194;28;20219;-62
2021/12/07 07:02:46;;;;;;;20.13;10.00;;;;;;;10.92;99.13;95699.13;5068184;28;20205;-62
2021/12/07 07:05:15;;;;;;;12.87;8.33;;;;;;;10.90;98.45;95688.03;5069608;28;20212;-62
2021/12/07 07:07:43;;;;;;;15.40;8.63;;;;;;;10.88;98.09;95692.50;5068301;28;20201;-62
2021/12/07 07:10:14;;;;;;;22.03;13.10;;;;;;;11.04;97.79;95674.16;5069569;28;20208;-63
2021/12/07 07:12:42;;;;;;;15.67;9.53;;;;;;;10.99;97.83;95674.47;5068832;28;20237;-63
2021/12/07 07:15:10;;;;;;;8.37;5.60;;;;;;;10.95;97.93;95672.19;5068096;28;20700;-63
2021/12/07 07:17:39;;;;;;;9.43;6.07;;;;;;;10.98;97.15;95678.00;5069279;28;20271;-63
2021/12/07 07:20:10;;;;;;;9.80;6.70;;;;;;;10.90;97.46;95664.72;5067702;28;20651;-63
2021/12/07 07:22:37;;;;;;;8.40;5.47;;;;;;;10.90;96.86;95669.09;5069458;28;20214;-63
2021/12/07 07:25:06;;;;;;;9.27;6.30;;;;;;;10.91;97.31;95661.22;5068084;28;20688;-63
2021/12/07 07:27:33;;;;;;;8.87;6.07;;;;;;;10.87;96.02;95659.78;5068771;28;20297;-63
2021/12/07 07:30:00;;;;;;;7.20;5.87;;;;;;;10.88;96.06;95653.66;5068766;28;20610;-63
2021/12/07 07:32:29;;;;;;;10.90;5.93;;;;;;;10.97;95.79;95672.91;5067430;28;20924;-63
2021/12/07 07:34:56;;;;;;;12.37;7.33;;;;;;;11.00;96.20;95654.59;5068845;28;20272;-62
2021/12/07 07:37:23;;;;;;;10.67;7.27;;;;;;;11.06;96.38;95660.16;5066979;28;20641;-63
2021/12/07 07:39:50;;;;;;;13.90;9.20;;;;;;;11.12;96.16;95664.94;5068768;28;20208;-65
2021/12/07 07:42:18;;;;;;;18.97;11.37;;;;;;;11.17;95.85;95669.78;5066045;28;20736;-64
2021/12/07 07:45:05;;;;;;;14.27;10.07;;;;;;;11.26;95.24;95666.53;5066578;28;20664;-63
2021/12/07 07:47:32;;;;;;;12.37;8.03;;;;;;;11.13;95.83;95661.38;5068741;28;20203;-63
2021/12/07 07:49:59;;;;;;;12.43;8.73;;;;;;;11.28;95.64;95680.22;5067279;28;20213;-63
2021/12/07 07:52:26;;;;;;;12.00;7.57;;;;;;;11.26;94.70;95666.53;5068034;28;20192;-63
2021/12/07 07:54:53;;;;;;;17.27;9.50;;;;;;;11.28;94.64;95677.63;5082346;28;20217;-65
2021/12/07 07:57:20;;;;;;;11.90;8.50;;;;;;;11.21;93.35;95679.81;5066472;28;20225;-63
2021/12/07 07:59:47;;;;;;;14.37;7.77;;;;;;;11.11;93.55;95688.31;5067301;28;20207;-63
2021/12/07 08:02:14;;;;;;;13.77;9.50;;;;;;;11.24;93.86;95689.97;5068143;28;20212;-63
2021/12/07 08:04:42;;;;;;;22.53;11.73;;;;;;;11.22;93.73;95694.44;5068513;28;20301;-64
2021/12/07 08:07:09;;;;;;;14.60;8.97;;;;;;;11.22;93.25;95684.06;5066741;28;20697;-65
2021/12/07 08:09:36;;;;;;;14.53;8.00;;;;;;;11.13;93.00;95687.28;5068497;28;20736;-63
2021/12/07 08:12:05;;;;;;;13.97;8.00;;;;;;;11.19;93.11;95684.28;5066814;28;20251;-62
2021/12/07 08:14:34;;;;;;;15.20;8.53;;;;;;;11.23;92.46;95677.94;5067710;28;20205;-63
2021/12/07 08:17:01;;;;;;;11.47;7.07;;;;;;;11.29;91.44;95681.88;5066983;28;20298;-62
2021/12/07 08:19:28;;;;;;;10.77;6.77;;;;;;;11.25;90.46;95681.25;5067282;28;20668;-64
2021/12/07 08:21:55;;;;;;;12.77;7.73;;;;;;;11.37;90.85;95675.19;5067866;28;20193;-63
2021/12/07 08:24:22;;;;;;;11.73;7.03;;;;;;;11.35;90.55;95676.28;5066312;28;20284;-64
2021/12/07 08:26:49;;;;;;;10.43;6.00;;;;;;;11.43;89.11;95679.97;5067804;28;20285;-63
2021/12/07 08:29:17;;;;;;;10.50;5.30;;;;;;;11.47;88.82;95675.41;5066367;28;20238;-63
2021/12/07 08:31:44;;;;;;;9.83;5.30;;;;;;;11.45;88.42;95672.09;5067572;28;20194;-64
2021/12/07 08:34:11;;;;;;;9.63;5.47;;;;;;;11.50;89.22;95658.81;5066438;28;20311;-64
2021/12/07 08:36:38;;;;;;;10.60;5.97;;;;;;;11.54;88.48;95658.44;5066736;28;20233;-65
2021/12/07 08:39:07;;;;;;;13.43;6.50;;;;;;;11.57;88.83;95672.97;5067148;28;20203;-64
2021/12/07 08:41:34;;;;;;;9.03;6.03;;;;;;;11.60;88.92;95670.16;5065560;28;20188;-64
2021/12/07 08:44:01;;;;;;;13.87;7.23;;;;;;;11.60;88.92;95676.19;5066643;28;20708;-64
2021/12/07 08:46:28;;;;;;;8.70;5.10;;;;;;;11.61;88.60;95685.59;5065564;28;20208;-64
2021/12/07 08:48:55;;;;;;;11.00;6.20;;;;;;;11.46;89.37;95684.94;5067281;28;20201;-64
2021/12/07 08:51:22;;;;;;;11.37;7.00;;;;;;;11.55;89.23;95673.09;5065759;28;20904;-62
2021/12/07 08:54:03;;;;;;;14.37;7.37;;;;;;;11.52;89.02;95675.06;5066114;28;20271;-63
2021/12/07 09:02:02;;;;;;;10.67;7.47;;;;;;;11.48;90.33;95651.94;5066628;28;20215;-63
2021/12/07 09:04:29;;;;;;;14.27;7.40;;;;;;;11.55;90.90;95660.13;5066192;28;20217;-65
2021/12/07 09:06:56;;;;;;;16.33;8.47;;;;;;;11.56;90.65;95653.19;5066463;28;20559;-65
2021/12/07 09:09:23;;;;;;;16.97;8.80;;;;;;;11.48;90.70;95657.13;5067093;28;20189;-66
2021/12/07 09:11:53;;;;;;;12.57;8.07;;;;;;;11.41;91.35;95640.38;5065349;28;20224;-66
2021/12/07 09:14:22;;;;;;;15.30;8.20;;;;;;;11.43;91.73;95615.19;5066971;28;20192;-66
2021/12/07 09:16:50;;;;;;;14.07;8.50;;;;;;;11.57;91.16;95616.75;5065123;28;20231;-67
2021/12/07 09:19:17;;;;;;;12.73;8.80;;;;;;;11.57;90.35;95613.34;5067065;28;20668;-64
2021/12/07 09:21:44;;;;;;;21.67;13.30;;;;;;;11.61;90.74;95625.13;5066155;28;20201;-62
2021/12/07 09:24:12;;;;;;;20.47;13.57;;;;;;;11.71;90.07;95636.53;5064368;28;20334;-63
2021/12/07 09:26:39;;;;;;;17.10;12.63;;;;;;;11.65;90.42;95629.16;5066475;28;20274;-64
2021/12/07 09:29:06;;;;;;;19.07;12.00;;;;;;;11.71;89.95;95620.97;5065098;28;20295;-65
2021/12/07 09:31:34;;;;;;;21.83;12.90;;;;;;;11.74;89.70;95620.75;5066313;28;20200;-65
2021/12/07 09:34:03;;;;;;;16.10;10.50;;;;;;;11.78;90.17;95617.00;5064947;28;20221;-63
2021/12/07 09:36:30;;;;;;;16.40;10.83;;;;;;;11.60;89.29;95602.75;5066355;28;20325;-64
2021/12/07 09:38:58;;;;;;;11.57;7.90;;;;;;;11.41;90.36;95593.72;5065796;28;20539;-64
2021/12/07 09:41:25;;;;;;;17.03;8.57;;;;;;;11.51;90.88;95603.41;5065554;28;20190;-66
2021/12/07 09:43:53;;;;;;;14.50;8.93;;;;;;;11.46;91.44;95599.38;5066308;28;20192;-64
2021/12/07 09:46:21;;;;;;;12.83;9.07;;;;;;;11.52;91.00;95595.50;5080233;28;20197;-67
2021/12/07 09:48:48;;;;;;;16.40;9.10;;;;;;;11.50;91.73;95597.38;5066655;28;20559;-66
2021/12/07 09:51:19;;;;;;;16.47;10.17;;;;;;;11.65;91.37;95603.22;5064891;28;20575;-64
2021/12/07 09:53:50;;;;;;;16.73;10.13;;;;;;;11.68;91.27;95610.84;5064721;28;20198;-65
2021/12/07 09:56:20;;;;;;;16.33;8.50;;;;;;;11.71;90.82;95611.44;5068854;28;20203;-64
2021/12/07 09:58:49;;;;;;;14.77;9.57;;;;;;;11.75;91.04;95601.66;5069204;28;20221;-65
2021/12/07 10:01:17;;;;;;;16.83;9.30;;;;;;;11.84;90.74;95595.81;5069470;28;20673;-64
2021/12/07 10:03:45;;;;;;;13.37;8.63;;;;;;;11.82;89.89;95587.31;5068655;28;20193;-66
2021/12/07 10:06:13;;;;;;;11.70;6.77;;;;;;;11.76;89.72;95598.13;5068844;28;20243;-63
2021/12/07 10:08:41;;;;;;;13.77;6.50;;;;;;;11.75;89.99;95588.69;5068737;28;20267;-64
2021/12/07 10:11:10;;;;;;;14.63;6.87;;;;;;;11.73;89.05;95595.75;5069924;28;20200;-63
2021/12/07 10:13:40;;;;;;;18.23;9.50;;;;;;;11.68;89.07;95587.50;5069675;28;20193;-64
2021/12/07 10:16:09;;;;;;;18.17;8.57;;;;;;;11.72;89.38;95591.53;5068434;28;20236;-63
2021/12/07 10:18:39;;;;;;;16.17;8.60;;;;;;;11.86;88.61;95578.34;5070065;28;20262;-65
2021/12/07 10:21:16;;;;;;;16.97;9.87;;;;;;;11.74;88.09;95567.13;5068671;28;20197;-64
2021/12/07 10:24:11;;;;;;;15.80;9.33;;;;;;;11.86;87.95;95567.97;5070001;28;20193;-66
2021/12/07 10:26:42;;;;;;;15.43;7.93;;;;;;;11.76;88.40;95569.59;5068607;28;20625;-64
2021/12/07 10:29:14;;;;;;;24.20;10.40;;;;;;;11.71;88.43;95563.91;5066709;28;20207;-65
2021/12/07 10:31:48;;;;;;;17.30;8.90;;;;;;;11.72;88.83;95563.81;5069595;28;20194;-66
2021/12/07 10:34:30;;;;;;;11.60;6.93;;;;;;;11.56;89.03;95541.69;5067810;28;20201;-65
2021/12/07 10:37:02;;;;;;;15.77;8.67;;;;;;;11.65;89.85;95531.47;5069480;28;20260;-65
2021/12/07 10:39:37;;;;;;;16.83;7.63;;;;;;;11.65;89.65;95528.03;5068769;28;20338;-63
2021/12/07 10:42:15;;;;;;;17.33;7.77;;;;;;;11.73;89.58;95512.75;5067486;28;20656;-63
2021/12/07 10:45:06;;;;;;;14.57;6.73;;;;;;;11.70;89.61;95521.63;5069304;28;20600;-63
2021/12/07 10:47:33;;;;;;;19.60;7.77;;;;;;;11.64;89.73;95506.50;5067736;28;20215;-63
2021/12/07 10:50:13;;;;;;;21.07;9.23;;;;;;;11.75;89.46;95519.50;5069026;28;20255;-63
2021/12/07 10:52:45;;;;;;;17.73;8.50;;;;;;;11.65;89.58;95513.31;5069047;28;20205;-63
2021/12/07 10:55:19;;;;;;;15.63;7.27;;;;;;;11.67;88.71;95502.84;5067727;28;20214;-63
2021/12/07 10:57:51;;;;;;;15.33;7.83;;;;;;;11.65;88.69;95510.72;5068511;28;20229;-63
2021/12/07 11:00:30;;;;;;;17.07;8.20;;;;;;;11.61;89.22;95508.47;5082808;28;20213;-64
2021/12/07 11:03:04;;;;;;;15.03;8.33;;;;;;;11.62;89.82;95512.72;5068690;28;20720;-64
2021/12/07 11:05:33;;;;;;;14.97;8.70;;;;;;;11.60;89.98;95512.00;5068346;28;20204;-63
2021/12/07 11:08:02;;;;;;;17.70;8.97;;;;;;;11.68;89.91;95514.88;5067649;28;20654;-63
2021/12/07 11:10:37;;;;;;;16.67;7.73;;;;;;;11.72;89.57;95496.41;5068808;28;20198;-64
2021/12/07 11:13:18;;;;;;;16.70;8.23;;;;;;;11.68;88.24;95491.56;5067086;28;20695;-65
2021/12/07 11:15:52;;;;;;;12.90;6.43;;;;;;;11.65;85.82;95500.34;5068773;28;20216;-64
2021/12/07 11:18:40;;;;;;;10.50;5.40;;;;;;;11.67;85.66;95489.88;5068702;28;20231;-66
2021/12/07 11:21:10;;;;;;;13.87;6.00;;;;;;;11.76;85.28;95508.19;5066477;28;20230;-64
2021/12/07 11:23:42;;;;;;;12.43;5.90;;;;;;;11.81;84.89;95487.09;5068531;28;20228;-64
2021/12/07 11:31:34;;;;;;;13.33;6.97;;;;;;;11.69;83.99;95480.22;5068532;28;20678;-63
2021/12/07 11:34:14;;;;;;;10.13;5.90;;;;;;;11.68;83.75;95476.00;5065284;28;20214;-64
2021/12/07 11:36:59;;;;;;;11.97;6.23;;;;;;;11.76;84.21;95482.25;5068469;28;20236;-64
2021/12/07 11:39:35;;;;;;;9.73;5.33;;;;;;;11.60;84.39;95473.13;5066587;28;20193;-64
2021/12/07 11:42:17;;;;;;;12.37;6.07;;;;;;;11.67;84.20;95469.97;5067432;28;20611;-63
2021/12/07 11:44:50;;;;;;;12.70;6.53;;;;;;;11.74;83.39;95463.41;5068449;28;20773;-65
2021/12/07 11:47:25;;;;;;;13.47;7.13;;;;;;;11.71;83.64;95455.00;5066748;28;20212;-64
2021/12/07 11:49:52;;;;;;;16.33;6.80;;;;;;;11.74;83.58;95447.00;5068749;28;20220;-63
2021/12/07 11:52:20;;;;;;;11.83;7.50;;;;;;;11.90;84.16;95458.69;5066341;28;20208;-64
2021/12/07 11:54:47;;;;;;;16.53;6.67;;;;;;;11.85;84.07;95458.22;5065632;28;20190;-65
2021/12/07 11:57:17;;;;;;;15.97;6.13;;;;;;;11.83;84.14;95452.31;5068405;28;20323;-63
2021/12/07 11:59:46;;;;;;;11.70;6.33;;;;;;;11.73;84.73;95447.94;5066973;28;20205;-63
2021/12/07 12:02:18;;;;;;;13.37;6.50;;;;;;;11.76;85.57;95456.31;5068355;28;20201;-64
2021/12/07 12:04:46;;;;;;;12.77;7.00;;;;;;;11.93;84.97;95455.84;5066529;28;20543;-64
2021/12/07 12:07:14;;;;;;;17.83;7.23;;;;;;;11.87;84.46;95451.13;5068036;28;20232;-63
2021/12/07 12:09:47;;;;;;;14.57;6.90;;;;;;;11.91;84.98;95454.34;5067098;28;20199;-63
2021/12/07 12:12:52;;;;;;;12.63;5.40;;;;;;;11.81;85.46;95443.81;5066821;28;20282;-64
2021/12/07 12:15:45;;;;;;;11.07;6.90;;;;;;;11.82;85.91;95447.25;5067770;28;20191;-63
2021/12/07 12:18:49;;;;;;;14.93;7.10;;;;;;;11.74;86.15;95440.06;5065300;28;20278;-63
2021/12/07 12:21:49;;;;;;;13.37;7.30;;;;;;;11.73;86.68;95437.56;5066627;28;20225;-65
2021/12/07 12:24:26;;;;;;;12.13;6.40;;;;;;;11.61;87.60;95439.28;5067742;28;20805;-65
2021/12/07 12:27:16;;;;;;;14.20;7.30;;;;;;;11.43;87.58;95431.16;5067043;28;20203;-66
2021/12/07 12:29:46;;;;;;;12.73;7.47;;;;;;;11.59;87.24;95437.75;5066374;28;20225;-65
2021/12/07 12:32:13;;;;;;;16.63;8.10;;;;;;;11.54;88.40;95463.22;5067610;28;20201;-63
2021/12/07 12:34:49;;;;;;;15.83;7.50;;;;;;;11.48;88.95;95438.56;5066193;28;20189;-63
2021/12/07 12:37:25;;;;;;;16.10;8.40;;;;;;;11.46;88.67;95440.44;5067810;28;20297;-63
2021/12/07 12:39:57;;;;;;;15.30;8.60;;;;;;;11.51;88.96;95440.09;5067025;28;20677;-64
2021/12/07 12:42:45;;;;;;;14.87;8.00;;;;;;;11.26;89.59;95444.50;5066585;28;20240;-63
2021/12/07 12:45:22;;;;;;;10.67;7.20;;;;;;;11.22;88.69;95443.09;5067576;28;20193;-64
2021/12/07 12:47:58;;;;;;;12.87;7.93;;;;;;;11.17;89.42;95440.00;5066086;28;20692;-64
2021/12/07 12:50:50;;;;;;;14.73;8.37;;;;;;;11.18;88.57;95444.25;5067575;28;20214;-64
2021/12/07 12:53:23;;;;;;;9.50;5.97;;;;;;;11.15;89.00;95436.69;5064882;28;20212;-64
2021/12/07 12:55:59;;;;;;;15.63;7.00;;;;;;;11.19;88.51;95440.72;5065921;28;20189;-63
2021/12/07 12:58:53;;;;;;;17.03;7.83;;;;;;;11.20;88.12;95444.97;5067428;28;20713;-63
2021/12/07 13:01:22;;;;;;;10.77;6.47;;;;;;;11.18;88.83;95430.47;5063513;28;20207;-63
2021/12/07 13:03:55;;;;;;;15.07;7.27;;;;;;;11.21;88.61;95441.44;5066185;28;20663;-64
2021/12/07 13:06:47;;;;;;;18.13;7.77;;;;;;;11.17;89.07;95434.81;5065996;28;20215;-64
2021/12/07 13:09:18;;;;;;;19.27;8.93;;;;;;;10.60;89.22;95330.34;5064047;28;20280;-63
2021/12/07 13:11:59;;;;;;;15.77;10.30;;;;;;;11.29;89.78;95433.09;5067050;28;20205;-63
2021/12/07 13:14:26;;;;;;;16.63;9.97;;;;;;;11.32;90.01;95431.09;5067043;28;20205;-63
2021/12/07 13:17:15;;;;;;;31.63;20.30;;;;;;;11.32;89.73;95432.84;5064425;28;20203;-64
2021/12/07 13:20:10;;;;;;;48.10;30.87;;;;;;;11.18;89.02;95430.47;5067025;28;20216;-64
2021/12/07 13:22:49;;;;;;;26.17;17.23;;;;;;;11.10;89.01;95425.03;5065716;28;20190;-63
2021/12/07 13:25:21;;;;;;;18.90;11.40;;;;;;;11.10;88.53;95425.88;5064489;28;20605;-64
2021/12/07 13:28:10;;;;;;;19.33;13.43;;;;;;;11.07;88.30;95427.81;5066804;28;20284;-63
2021/12/07 13:31:01;;;;;;;15.00;10.10;;;;;;;11.13;87.49;95424.78;5065297;28;20294;-64